sensor_id;sensor_type;location;lat;lon;timestamp;pressure;altitude;pressure_sealevel;temperature;humidity
74542;BME280;63015;45.378;20.360;2024-03-17T00:00:25;101048.97;;;11.71;74.12
74542;BME280;63015;45.378;20.360;2024-03-17T00:02:25;101041.09;;;11.62;73.97
74542;BME280;63015;45.378;20.360;2024-03-17T00:04:27;101040.25;;;11.64;73.37
74542;BME280;63015;45.378;20.360;2024-03-17T00:06:28;101039.38;;;11.70;73.30
74542;BME280;63015;45.378;20.360;2024-03-17T00:08:28;101041.09;;;11.63;73.92
74542;BME280;63015;45.378;20.360;2024-03-17T00:10:32;101041.09;;;11.68;73.01
74542;BME280;63015;45.378;20.360;2024-03-17T00:12:34;101045.47;;;11.66;73.94
74542;BME280;63015;45.378;20.360;2024-03-17T00:14:35;101043.75;;;11.70;73.42
74542;BME280;63015;45.378;20.360;2024-03-17T00:16:35;101050.69;;;11.69;73.12
74542;BME280;63015;45.378;20.360;2024-03-17T00:18:36;101049.81;;;11.72;73.10
74542;BME280;63015;45.378;20.360;2024-03-17T00:20:37;101041.09;;;11.68;73.57
74542;BME280;63015;45.378;20.360;2024-03-17T00:22:38;101047.22;;;11.70;73.40
74542;BME280;63015;45.378;20.360;2024-03-17T00:24:42;101045.47;;;11.69;73.02
74542;BME280;63015;45.378;20.360;2024-03-17T00:26:43;101045.50;;;11.72;73.67
74542;BME280;63015;45.378;20.360;2024-03-17T00:28:46;101035.03;;;11.67;73.34
74542;BME280;63015;45.378;20.360;2024-03-17T00:30:48;101034.16;;;11.70;73.77
74542;BME280;63015;45.378;20.360;2024-03-17T00:32:49;101042.00;;;11.68;74.24
74542;BME280;63015;45.378;20.360;2024-03-17T00:34:49;101029.75;;;11.60;74.20
74542;BME280;63015;45.378;20.360;2024-03-17T00:36:50;101036.75;;;11.64;74.23
74542;BME280;63015;45.378;20.360;2024-03-17T00:38:51;101041.09;;;11.65;74.34
74542;BME280;63015;45.378;20.360;2024-03-17T00:40:52;101048.06;;;11.66;74.02
74542;BME280;63015;45.378;20.360;2024-03-17T00:42:53;101031.50;;;11.61;74.17
74542;BME280;63015;45.378;20.360;2024-03-17T00:44:55;101038.44;;;11.59;74.43
74542;BME280;63015;45.378;20.360;2024-03-17T00:46:55;101035.81;;;11.51;74.64
74542;BME280;63015;45.378;20.360;2024-03-17T00:48:56;101034.06;;;11.48;74.79
74542;BME280;63015;45.378;20.360;2024-03-17T00:50:57;101029.66;;;11.38;75.23
74542;BME280;63015;45.378;20.360;2024-03-17T00:52:58;101033.13;;;11.32;75.66
74542;BME280;63015;45.378;20.360;2024-03-17T00:54:59;101037.47;;;11.33;75.12
74542;BME280;63015;45.378;20.360;2024-03-17T00:56:59;101038.34;;;11.34;75.30
74542;BME280;63015;45.378;20.360;2024-03-17T00:59:00;101029.59;;;11.27;75.74
74542;BME280;63015;45.378;20.360;2024-03-17T01:01:01;101038.25;;;11.20;76.46
74542;BME280;63015;45.378;20.360;2024-03-17T01:03:01;101028.66;;;11.17;76.58
74542;BME280;63015;45.378;20.360;2024-03-17T01:05:02;101036.47;;;11.14;76.50
74542;BME280;63015;45.378;20.360;2024-03-17T01:07:06;101039.09;;;11.14;76.84
74542;BME280;63015;45.378;20.360;2024-03-17T01:09:07;101038.19;;;11.11;77.04
74542;BME280;63015;45.378;20.360;2024-03-17T01:11:08;101032.13;;;11.13;77.58
74542;BME280;63015;45.378;20.360;2024-03-17T01:13:09;101028.56;;;11.03;77.77
74542;BME280;63015;45.378;20.360;2024-03-17T01:15:10;101023.34;;;11.02;77.97
74542;BME280;63015;45.378;20.360;2024-03-17T01:17:11;101029.41;;;10.96;78.56
74542;BME280;63015;45.378;20.360;2024-03-17T01:19:12;101028.50;;;10.91;78.62
74542;BME280;63015;45.378;20.360;2024-03-17T01:21:12;101032.88;;;10.98;78.35
74542;BME280;63015;45.378;20.360;2024-03-17T01:23:13;101030.25;;;10.95;78.74
74542;BME280;63015;45.378;20.360;2024-03-17T01:25:14;101028.50;;;10.93;79.05
74542;BME280;63015;45.378;20.360;2024-03-17T01:27:14;101030.25;;;10.95;78.79
74542;BME280;63015;45.378;20.360;2024-03-17T01:29:16;101033.75;;;10.97;78.86
74542;BME280;63015;45.378;20.360;2024-03-17T01:31:16;101034.56;;;10.90;79.47
74542;BME280;63015;45.378;20.360;2024-03-17T01:33:17;101030.19;;;10.88;79.54
74542;BME280;63015;45.378;20.360;2024-03-17T01:35:18;101030.19;;;10.88;79.70
74542;BME280;63015;45.378;20.360;2024-03-17T01:37:18;101031.06;;;10.88;79.51
74542;BME280;63015;45.378;20.360;2024-03-17T01:39:19;101030.22;;;10.91;78.91
74542;BME280;63015;45.378;20.360;2024-03-17T01:41:21;101033.72;;;10.90;79.00
74542;BME280;63015;45.378;20.360;2024-03-17T01:43:22;101023.19;;;10.79;79.52
74542;BME280;63015;45.378;20.360;2024-03-17T01:47:30;101033.59;;;10.76;79.55
74542;BME280;63015;45.378;20.360;2024-03-17T01:49:31;101037.06;;;10.75;79.97
74542;BME280;63015;45.378;20.360;2024-03-17T01:51:32;101035.34;;;10.77;79.63
74542;BME280;63015;45.378;20.360;2024-03-17T01:53:32;101033.59;;;10.74;79.77
74542;BME280;63015;45.378;20.360;2024-03-17T01:55:35;101028.38;;;10.77;79.35
74542;BME280;63015;45.378;20.360;2024-03-17T01:57:37;101037.97;;;10.83;79.24
74542;BME280;63015;45.378;20.360;2024-03-17T01:59:37;101033.59;;;10.80;79.46
74542;BME280;63015;45.378;20.360;2024-03-17T02:01:39;101039.78;;;10.87;78.76
74542;BME280;63015;45.378;20.360;2024-03-17T02:03:40;101037.16;;;10.87;79.24
74542;BME280;63015;45.378;20.360;2024-03-17T02:05:41;101037.13;;;10.85;79.42
74542;BME280;63015;45.378;20.360;2024-03-17T02:07:42;101038.03;;;10.86;79.48
74542;BME280;63015;45.378;20.360;2024-03-17T02:09:42;101038.91;;;10.90;78.96
74542;BME280;63015;45.378;20.360;2024-03-17T02:11:43;101036.31;;;10.93;79.17
74542;BME280;63015;45.378;20.360;2024-03-17T02:13:44;101043.31;;;10.98;79.05
74542;BME280;63015;45.378;20.360;2024-03-17T02:15:44;101036.34;;;10.96;78.77
74542;BME280;63015;45.378;20.360;2024-03-17T02:17:45;101033.72;;;10.93;78.81
74542;BME280;63015;45.378;20.360;2024-03-17T02:19:45;101034.63;;;10.95;78.97
74542;BME280;63015;45.378;20.360;2024-03-17T02:21:46;101036.34;;;10.96;78.91
74542;BME280;63015;45.378;20.360;2024-03-17T02:23:46;101033.72;;;10.96;78.94
74542;BME280;63015;45.378;20.360;2024-03-17T02:25:47;101024.13;;;10.89;79.14
74542;BME280;63015;45.378;20.360;2024-03-17T02:27:48;101042.41;;;10.93;79.40
74542;BME280;63015;45.378;20.360;2024-03-17T02:29:49;101037.16;;;10.89;79.42
74542;BME280;63015;45.378;20.360;2024-03-17T02:31:49;101025.00;;;10.89;78.98
74542;BME280;63015;45.378;20.360;2024-03-17T02:33:50;101038.06;;;10.92;79.34
74542;BME280;63015;45.378;20.360;2024-03-17T02:35:51;101038.94;;;10.93;79.01
74542;BME280;63015;45.378;20.360;2024-03-17T02:37:51;101037.16;;;10.87;79.06
74542;BME280;63015;45.378;20.360;2024-03-17T02:39:52;101026.72;;;10.87;78.85
74542;BME280;63015;45.378;20.360;2024-03-17T02:41:53;101037.16;;;10.89;78.83
74542;BME280;63015;45.378;20.360;2024-03-17T02:43:53;101041.53;;;10.90;78.84
74542;BME280;63015;45.378;20.360;2024-03-17T02:45:54;101031.03;;;10.83;79.10
74542;BME280;63015;45.378;20.360;2024-03-17T02:47:55;101044.94;;;10.84;78.99
74542;BME280;63015;45.378;20.360;2024-03-17T02:49:55;101024.06;;;10.82;79.06
74542;BME280;63015;45.378;20.360;2024-03-17T02:51:56;101031.09;;;10.90;78.48
74542;BME280;63015;45.378;20.360;2024-03-17T02:53:56;101037.19;;;10.93;78.36
74542;BME280;63015;45.378;20.360;2024-03-17T02:55:59;101037.16;;;10.89;78.94
74542;BME280;63015;45.378;20.360;2024-03-17T02:58:00;101036.28;;;10.86;78.61
74542;BME280;63015;45.378;20.360;2024-03-17T03:00:00;101040.66;;;10.91;78.39
74542;BME280;63015;45.378;20.360;2024-03-17T03:02:04;101029.28;;;10.79;78.92
74542;BME280;63015;45.378;20.360;2024-03-17T03:04:05;101037.97;;;10.83;78.95
74542;BME280;63015;45.378;20.360;2024-03-17T03:06:05;101040.56;;;10.80;78.50
74542;BME280;63015;45.378;20.360;2024-03-17T03:08:09;101040.59;;;10.83;78.72
74542;BME280;63015;45.378;20.360;2024-03-17T03:10:10;101044.03;;;10.80;78.78
74542;BME280;63015;45.378;20.360;2024-03-17T03:12:10;101038.81;;;10.76;79.12
74542;BME280;63015;45.378;20.360;2024-03-17T03:14:11;101033.59;;;10.77;79.01
74542;BME280;63015;45.378;20.360;2024-03-17T03:16:13;101032.75;;;10.80;79.36
74542;BME280;63015;45.378;20.360;2024-03-17T03:18:18;101028.44;;;10.86;79.15
74542;BME280;63015;45.378;20.360;2024-03-17T03:20:19;101029.28;;;10.81;80.04
74542;BME280;63015;45.378;20.360;2024-03-17T03:22:19;101021.41;;;10.76;79.88
74542;BME280;63015;45.378;20.360;2024-03-17T03:24:22;101023.19;;;10.79;80.47
74542;BME280;63015;45.378;20.360;2024-03-17T03:26:22;101023.19;;;10.79;80.14
74542;BME280;63015;45.378;20.360;2024-03-17T03:28:24;101023.16;;;10.77;81.07
74542;BME280;63015;45.378;20.360;2024-03-17T03:30:25;101021.41;;;10.73;80.50
74542;BME280;63015;45.378;20.360;2024-03-17T03:32:25;101031.84;;;10.73;81.09
74542;BME280;63015;45.378;20.360;2024-03-17T03:34:26;101021.34;;;10.68;81.79
74542;BME280;63015;45.378;20.360;2024-03-17T03:36:27;101027.44;;;10.67;82.31
74542;BME280;63015;45.378;20.360;2024-03-17T03:38:27;101034.41;;;10.70;80.88
74542;BME280;63015;45.378;20.360;2024-03-17T03:40:28;101019.66;;;10.69;81.12
74542;BME280;63015;45.378;20.360;2024-03-17T03:42:29;101018.75;;;10.65;81.60
74542;BME280;63015;45.378;20.360;2024-03-17T03:44:30;101027.41;;;10.66;81.02
74542;BME280;63015;45.378;20.360;2024-03-17T03:46:30;101029.97;;;10.58;81.77
74542;BME280;63015;45.378;20.360;2024-03-17T03:48:31;101029.09;;;10.59;80.95
74542;BME280;63015;45.378;20.360;2024-03-17T03:50:32;101042.13;;;10.58;81.85
74542;BME280;63015;45.378;20.360;2024-03-17T03:52:33;101035.09;;;10.47;83.10
74542;BME280;63015;45.378;20.360;2024-03-17T03:54:34;101036.78;;;10.42;82.78
74542;BME280;63015;45.378;20.360;2024-03-17T03:56:35;101032.44;;;10.44;83.28
74542;BME280;63015;45.378;20.360;2024-03-17T03:58:37;101021.91;;;10.35;83.19
74542;BME280;63015;45.378;20.360;2024-03-17T04:00:39;101031.38;;;10.27;83.13
74542;BME280;63015;45.378;20.360;2024-03-17T04:02:43;101028.72;;;10.24;83.09
74542;BME280;63015;45.378;20.360;2024-03-17T04:04:43;101033.06;;;10.23;82.82
74542;BME280;63015;45.378;20.360;2024-03-17T04:06:44;101041.66;;;10.14;82.67
74542;BME280;63015;45.378;20.360;2024-03-17T04:08:44;101037.31;;;10.15;82.15
74542;BME280;63015;45.378;20.360;2024-03-17T04:10:45;101041.72;;;10.19;81.78
74542;BME280;63015;45.378;20.360;2024-03-17T04:12:45;101048.44;;;10.00;83.02
74542;BME280;63015;45.378;20.360;2024-03-17T04:14:46;101036.28;;;9.97;82.97
74542;BME280;63015;45.378;20.360;2024-03-17T04:16:47;101038.03;;;9.98;83.56
74542;BME280;63015;45.378;20.360;2024-03-17T04:18:47;101040.63;;;9.98;83.74
74542;BME280;63015;45.378;20.360;2024-03-17T04:20:48;101042.31;;;9.95;83.45
74542;BME280;63015;45.378;20.360;2024-03-17T04:22:48;101039.63;;;9.87;83.35
74542;BME280;63015;45.378;20.360;2024-03-17T04:24:50;101035.19;;;9.81;83.32
74542;BME280;63015;45.378;20.360;2024-03-17T04:26:53;101054.25;;;9.79;83.33
74542;BME280;63015;45.378;20.360;2024-03-17T04:28:54;101054.22;;;9.74;83.57
74542;BME280;63015;45.378;20.360;2024-03-17T04:31:05;101055.91;;;9.72;82.95
74542;BME280;63015;45.378;20.360;2024-03-17T04:33:05;101044.47;;;9.58;83.52
74542;BME280;63015;45.378;20.360;2024-03-17T04:35:06;101051.53;;;9.66;84.13
74542;BME280;63015;45.378;20.360;2024-03-17T04:37:07;101047.06;;;9.59;84.80
74542;BME280;63015;45.378;20.360;2024-03-17T04:39:08;101058.31;;;9.57;84.66
74542;BME280;63015;45.378;20.360;2024-03-17T04:41:08;101059.13;;;9.52;85.79
74542;BME280;63015;45.378;20.360;2024-03-17T04:43:10;101064.34;;;9.54;86.05
74542;BME280;63015;45.378;20.360;2024-03-17T04:45:10;101063.50;;;9.53;86.02
74542;BME280;63015;45.378;20.360;2024-03-17T04:47:12;101064.34;;;9.52;85.55
74542;BME280;63015;45.378;20.360;2024-03-17T04:49:13;101065.91;;;9.41;86.02
74542;BME280;63015;45.378;20.360;2024-03-17T04:51:16;101072.06;;;9.46;85.53
74542;BME280;63015;45.378;20.360;2024-03-17T04:53:17;101065.94;;;9.43;85.28
74542;BME280;63015;45.378;20.360;2024-03-17T04:55:18;101065.06;;;9.42;85.29
74542;BME280;63015;45.378;20.360;2024-03-17T04:57:19;101071.13;;;9.41;85.98
74542;BME280;63015;45.378;20.360;2024-03-17T04:59:19;101069.31;;;9.34;86.38
74542;BME280;63015;45.378;20.360;2024-03-17T05:01:20;101068.38;;;9.30;86.53
74542;BME280;63015;45.378;20.360;2024-03-17T05:03:21;101080.53;;;9.33;86.76
74542;BME280;63015;45.378;20.360;2024-03-17T05:05:21;101077.88;;;9.30;86.64
74542;BME280;63015;45.378;20.360;2024-03-17T05:07:24;101083.16;;;9.34;86.61
74542;BME280;63015;45.378;20.360;2024-03-17T05:09:24;101093.53;;;9.31;86.54
74542;BME280;63015;45.378;20.360;2024-03-17T05:11:25;101082.31;;;9.35;86.16
74542;BME280;63015;45.378;20.360;2024-03-17T05:13:27;101088.38;;;9.34;86.47
74542;BME280;63015;45.378;20.360;2024-03-17T05:15:28;101083.13;;;9.31;86.36
74542;BME280;63015;45.378;20.360;2024-03-17T05:17:29;101089.28;;;9.36;86.16
74542;BME280;63015;45.378;20.360;2024-03-17T05:22:28;101097.97;;;9.38;86.05
74542;BME280;63015;45.378;20.360;2024-03-17T05:24:29;101084.09;;;9.38;85.97
74542;BME280;63015;45.378;20.360;2024-03-17T05:26:29;101088.50;;;9.44;85.37
74542;BME280;63015;45.378;20.360;2024-03-17T05:28:32;101095.53;;;9.49;84.68
74542;BME280;63015;45.378;20.360;2024-03-17T05:30:35;101106.06;;;9.59;84.42
74542;BME280;63015;45.378;20.360;2024-03-17T05:32:36;101105.28;;;9.66;83.17
74542;BME280;63015;45.378;20.360;2024-03-17T05:34:37;101099.31;;;9.75;82.38
74542;BME280;63015;45.378;20.360;2024-03-17T05:36:38;101103.72;;;9.79;82.35
74542;BME280;63015;45.378;20.360;2024-03-17T05:38:38;101109.84;;;9.84;82.07
74542;BME280;63015;45.378;20.360;2024-03-17T05:40:39;101106.50;;;9.91;81.69
74542;BME280;63015;45.378;20.360;2024-03-17T05:42:42;101092.59;;;9.91;81.67
74542;BME280;63015;45.378;20.360;2024-03-17T05:44:43;101109.28;;;10.05;81.56
74542;BME280;63015;45.378;20.360;2024-03-17T05:46:50;101102.28;;;10.02;81.38
74542;BME280;63015;45.378;20.360;2024-03-17T05:48:53;101104.09;;;10.08;81.32
74542;BME280;63015;45.378;20.360;2024-03-17T05:50:53;101114.56;;;10.13;81.49
74542;BME280;63015;45.378;20.360;2024-03-17T05:52:54;101123.31;;;10.19;81.36
74542;BME280;63015;45.378;20.360;2024-03-17T05:54:54;101114.66;;;10.20;80.83
74542;BME280;63015;45.378;20.360;2024-03-17T05:56:56;101119.84;;;10.19;81.29
74542;BME280;63015;45.378;20.360;2024-03-17T05:58:56;101118.13;;;10.23;81.66
74542;BME280;63015;45.378;20.360;2024-03-17T06:00:57;101125.19;;;10.30;81.43
74542;BME280;63015;45.378;20.360;2024-03-17T06:02:58;101123.50;;;10.33;81.78
74542;BME280;63015;45.378;20.360;2024-03-17T06:05:00;101127.91;;;10.39;80.95
74542;BME280;63015;45.378;20.360;2024-03-17T06:07:04;101128.78;;;10.38;81.06
74542;BME280;63015;45.378;20.360;2024-03-17T06:09:06;101124.56;;;10.49;80.76
74542;BME280;63015;45.378;20.360;2024-03-17T06:11:10;101136.72;;;10.50;80.62
74542;BME280;63015;45.378;20.360;2024-03-17T06:13:11;101134.13;;;10.52;80.51
74542;BME280;63015;45.378;20.360;2024-03-17T06:15:16;101131.59;;;10.55;80.57
74542;BME280;63015;45.378;20.360;2024-03-17T06:17:17;101126.44;;;10.61;80.03
74542;BME280;63015;45.378;20.360;2024-03-17T06:19:17;101126.59;;;10.80;79.34
74542;BME280;63015;45.378;20.360;2024-03-17T06:21:18;101123.22;;;10.87;78.97
74542;BME280;63015;45.378;20.360;2024-03-17T06:23:18;101133.78;;;11.02;78.84
74542;BME280;63015;45.378;20.360;2024-03-17T06:25:19;101144.22;;;11.04;77.71
74542;BME280;63015;45.378;20.360;2024-03-17T06:27:19;101147.69;;;11.06;77.11
74542;BME280;63015;45.378;20.360;2024-03-17T06:29:20;101157.28;;;11.09;77.10
74542;BME280;63015;45.378;20.360;2024-03-17T06:31:20;101152.97;;;11.12;77.27
74542;BME280;63015;45.378;20.360;2024-03-17T06:33:21;101156.41;;;11.05;77.06
74542;BME280;63015;45.378;20.360;2024-03-17T06:35:21;101158.91;;;10.96;77.33
74542;BME280;63015;45.378;20.360;2024-03-17T06:37:25;101157.19;;;10.99;77.41
74542;BME280;63015;45.378;20.360;2024-03-17T06:39:26;101144.06;;;10.89;77.55
74542;BME280;63015;45.378;20.360;2024-03-17T06:41:26;101155.44;;;10.98;77.34
74542;BME280;63015;45.378;20.360;2024-03-17T06:43:27;101157.28;;;11.09;77.19
74542;BME280;63015;45.378;20.360;2024-03-17T06:45:27;101149.38;;;11.01;76.83
74542;BME280;63015;45.378;20.360;2024-03-17T06:47:28;101170.44;;;11.24;76.97
74542;BME280;63015;45.378;20.360;2024-03-17T06:49:28;101179.25;;;11.34;76.92
74542;BME280;63015;45.378;20.360;2024-03-17T06:51:31;101178.41;;;11.38;76.12
74542;BME280;63015;45.378;20.360;2024-03-17T06:53:31;101179.28;;;11.40;75.50
74542;BME280;63015;45.378;20.360;2024-03-17T06:55:34;101178.38;;;11.37;74.71
74542;BME280;63015;45.378;20.360;2024-03-17T06:57:34;101186.28;;;11.41;74.65
74542;BME280;63015;45.378;20.360;2024-03-17T06:59:35;101193.13;;;11.28;74.48
74542;BME280;63015;45.378;20.360;2024-03-17T07:01:35;101192.22;;;11.25;74.56
74542;BME280;63015;45.378;20.360;2024-03-17T07:03:36;101190.53;;;11.31;74.52
74542;BME280;63015;45.378;20.360;2024-03-17T07:05:36;101196.72;;;11.46;74.39
74542;BME280;63015;45.378;20.360;2024-03-17T07:07:37;101195.00;;;11.46;74.25
74542;BME280;63015;45.378;20.360;2024-03-17T07:09:38;101202.91;;;11.54;74.37
74542;BME280;63015;45.378;20.360;2024-03-17T07:11:39;101200.19;;;11.45;74.14
74542;BME280;63015;45.378;20.360;2024-03-17T07:13:40;101203.75;;;11.56;74.01
74542;BME280;63015;45.378;20.360;2024-03-17T07:15:47;101205.53;;;11.59;73.91
74542;BME280;63015;45.378;20.360;2024-03-17T07:17:50;101200.28;;;11.57;73.69
74542;BME280;63015;45.378;20.360;2024-03-17T07:19:50;101198.53;;;11.56;73.71
74542;BME280;63015;45.378;20.360;2024-03-17T07:21:51;101207.22;;;11.52;73.66
74542;BME280;63015;45.378;20.360;2024-03-17T07:23:51;101211.63;;;11.59;73.73
74542;BME280;63015;45.378;20.360;2024-03-17T07:25:56;101207.22;;;11.49;73.73
74542;BME280;63015;45.378;20.360;2024-03-17T07:27:56;101210.78;;;11.63;73.77
74542;BME280;63015;45.378;20.360;2024-03-17T07:29:57;101204.72;;;11.69;73.34
74542;BME280;63015;45.378;20.360;2024-03-17T07:31:57;101202.94;;;11.62;73.05
74542;BME280;63015;45.378;20.360;2024-03-17T07:33:58;101210.91;;;11.79;72.72
74542;BME280;63015;45.378;20.360;2024-03-17T07:35:58;101210.09;;;11.94;72.27
74542;BME280;63015;45.378;20.360;2024-03-17T07:38:03;101216.22;;;11.93;72.35
74542;BME280;63015;45.378;20.360;2024-03-17T07:40:04;101215.44;;;12.08;71.50
74542;BME280;63015;45.378;20.360;2024-03-17T07:42:07;101222.41;;;12.07;71.32
74542;BME280;63015;45.378;20.360;2024-03-17T07:44:07;101221.56;;;12.13;71.24
74542;BME280;63015;45.378;20.360;2024-03-17T07:46:10;101222.44;;;12.10;70.85
74542;BME280;63015;45.378;20.360;2024-03-17T07:48:12;101226.00;;;12.32;70.27
74542;BME280;63015;45.378;20.360;2024-03-17T07:50:13;101225.16;;;12.35;68.42
74542;BME280;63015;45.378;20.360;2024-03-17T07:52:13;101228.69;;;12.48;67.89
74542;BME280;63015;45.378;20.360;2024-03-17T07:54:14;101225.22;;;12.50;67.21
74542;BME280;63015;45.378;20.360;2024-03-17T07:56:15;101226.97;;;12.53;66.01
74542;BME280;63015;45.378;20.360;2024-03-17T07:58:16;101220.06;;;12.61;65.79
74542;BME280;63015;45.378;20.360;2024-03-17T08:00:17;101226.31;;;13.25;64.70
74542;BME280;63015;45.378;20.360;2024-03-17T08:02:17;101214.06;;;13.24;61.37
74542;BME280;63015;45.378;20.360;2024-03-17T08:04:18;101219.34;;;13.57;61.52
74542;BME280;63015;45.378;20.360;2024-03-17T08:06:18;101222.81;;;13.82;61.36
74542;BME280;63015;45.378;20.360;2024-03-17T08:08:19;101216.59;;;14.14;59.01
74542;BME280;63015;45.378;20.360;2024-03-17T08:10:20;101207.72;;;14.57;57.96
74542;BME280;63015;45.378;20.360;2024-03-17T08:12:22;101218.16;;;14.63;54.60
74542;BME280;63015;45.378;20.360;2024-03-17T08:14:23;101206.47;;;15.18;53.74
74542;BME280;63015;45.378;20.360;2024-03-17T08:16:23;101214.25;;;15.34;51.73
74542;BME280;63015;45.378;20.360;2024-03-17T08:18:24;101215.81;;;15.56;50.70
74542;BME280;63015;45.378;20.360;2024-03-17T08:20:25;101214.72;;;15.77;51.55
74542;BME280;63015;45.378;20.360;2024-03-17T08:22:26;101210.94;;;16.09;48.64
74542;BME280;63015;45.378;20.360;2024-03-17T08:24:26;101208.47;;;15.94;46.95
74542;BME280;63015;45.378;20.360;2024-03-17T08:26:26;101213.44;;;16.20;45.27
74542;BME280;63015;45.378;20.360;2024-03-17T08:28:28;101206.38;;;16.94;44.83
74542;BME280;63015;45.378;20.360;2024-03-17T08:30:29;101201.91;;;16.99;43.86
74542;BME280;63015;45.378;20.360;2024-03-17T08:32:30;101207.56;;;16.70;43.87
74542;BME280;63015;45.378;20.360;2024-03-17T08:34:31;101205.72;;;16.75;44.40
74542;BME280;63015;45.378;20.360;2024-03-17T08:36:32;101209.28;;;16.71;43.92
74542;BME280;63015;45.378;20.360;2024-03-17T08:38:34;101207.09;;;16.38;43.59
74542;BME280;63015;45.378;20.360;2024-03-17T08:40:36;101199.13;;;16.43;43.22
74542;BME280;63015;45.378;20.360;2024-03-17T08:42:37;101207.44;;;16.09;42.62
74542;BME280;63015;45.378;20.360;2024-03-17T08:44:37;101209.06;;;16.21;43.38
74542;BME280;63015;45.378;20.360;2024-03-17T08:46:38;101208.44;;;15.95;43.47
74542;BME280;63015;45.378;20.360;2024-03-17T08:48:39;101204.13;;;15.91;43.32
74542;BME280;63015;45.378;20.360;2024-03-17T08:50:40;101213.56;;;16.08;43.55
74542;BME280;63015;45.378;20.360;2024-03-17T08:52:40;101206.84;;;15.82;43.95
74542;BME280;63015;45.378;20.360;2024-03-17T08:54:41;101202.25;;;16.01;45.09
74542;BME280;63015;45.378;20.360;2024-03-17T08:56:42;101207.78;;;15.72;44.68
74542;BME280;63015;45.378;20.360;2024-03-17T08:58:42;101217.69;;;15.40;44.47
74542;BME280;63015;45.378;20.360;2024-03-17T09:00:43;101218.75;;;15.18;43.87
74542;BME280;63015;45.378;20.360;2024-03-17T09:02:44;101209.97;;;15.17;44.11
74542;BME280;63015;45.378;20.360;2024-03-17T09:04:45;101218.09;;;14.85;44.49
74542;BME280;63015;45.378;20.360;2024-03-17T09:06:45;101217.19;;;14.87;44.66
74542;BME280;63015;45.378;20.360;2024-03-17T09:08:46;101214.50;;;14.96;44.55
74542;BME280;63015;45.378;20.360;2024-03-17T09:10:48;101217.97;;;15.00;45.06
74542;BME280;63015;45.378;20.360;2024-03-17T09:12:49;101216.41;;;14.71;44.93
74542;BME280;63015;45.378;20.360;2024-03-17T09:14:49;101225.09;;;14.83;44.63
74542;BME280;63015;45.378;20.360;2024-03-17T09:16:50;101227.56;;;15.09;45.29
74542;BME280;63015;45.378;20.360;2024-03-17T09:18:50;101229.53;;;14.71;45.66
74542;BME280;63015;45.378;20.360;2024-03-17T09:21:07;101225.16;;;14.72;46.15
74542;BME280;63015;45.378;20.360;2024-03-17T09:23:08;101221.66;;;14.73;46.73
74542;BME280;63015;45.378;20.360;2024-03-17T09:25:09;101213.66;;;14.96;47.12
74542;BME280;63015;45.378;20.360;2024-03-17T09:27:09;101224.31;;;14.70;46.94
74542;BME280;63015;45.378;20.360;2024-03-17T09:29:10;101214.59;;;14.86;47.61
74542;BME280;63015;45.378;20.360;2024-03-17T09:31:12;101222.41;;;14.93;46.97
74542;BME280;63015;45.378;20.360;2024-03-17T09:33:12;101205.72;;;15.02;46.94
74542;BME280;63015;45.378;20.360;2024-03-17T09:35:13;101220.41;;;15.29;47.21
74542;BME280;63015;45.378;20.360;2024-03-17T09:37:14;101215.25;;;15.17;48.03
74542;BME280;63015;45.378;20.360;2024-03-17T09:39:16;101215.25;;;15.16;47.34
74542;BME280;63015;45.378;20.360;2024-03-17T09:41:24;101211.75;;;15.17;47.15
74542;BME280;63015;45.378;20.360;2024-03-17T09:43:32;101214.19;;;15.40;46.07
74542;BME280;63015;45.378;20.360;2024-03-17T09:45:33;101218.59;;;15.39;44.16
74542;BME280;63015;45.378;20.360;2024-03-17T09:47:36;101227.19;;;15.57;44.45
74542;BME280;63015;45.378;20.360;2024-03-17T09:49:36;101223.69;;;15.56;43.02
74542;BME280;63015;45.378;20.360;2024-03-17T09:51:39;101228.06;;;15.59;42.33
74542;BME280;63015;45.378;20.360;2024-03-17T09:53:39;101215.03;;;15.45;42.62
74542;BME280;63015;45.378;20.360;2024-03-17T09:55:40;101229.88;;;15.48;43.10
74542;BME280;63015;45.378;20.360;2024-03-17T09:57:41;101226.28;;;15.59;43.12
74542;BME280;63015;45.378;20.360;2024-03-17T09:59:42;101215.38;;;16.04;44.05
74542;BME280;63015;45.378;20.360;2024-03-17T10:01:43;101222.19;;;16.22;43.69
74542;BME280;63015;45.378;20.360;2024-03-17T10:03:47;101221.84;;;16.50;43.64
74542;BME280;63015;45.378;20.360;2024-03-17T10:06:04;101222.38;;;16.75;43.55
74542;BME280;63015;45.378;20.360;2024-03-17T10:08:05;101221.47;;;16.78;42.51
74542;BME280;63015;45.378;20.360;2024-03-17T10:10:11;101214.28;;;16.92;41.28
74542;BME280;63015;45.378;20.360;2024-03-17T10:12:28;101216.69;;;17.06;41.25
74542;BME280;63015;45.378;20.360;2024-03-17T10:14:29;101226.66;;;16.84;40.77
74542;BME280;63015;45.378;20.360;2024-03-17T10:16:32;101215.03;;;17.01;41.10
74542;BME280;63015;45.378;20.360;2024-03-17T10:18:33;101209.09;;;16.83;41.10
74542;BME280;63015;45.378;20.360;2024-03-17T10:20:34;101223.47;;;16.60;41.64
74542;BME280;63015;45.378;20.360;2024-03-17T10:22:34;101219.13;;;16.58;42.36
74542;BME280;63015;45.378;20.360;2024-03-17T10:24:35;101211.13;;;16.66;42.77
74542;BME280;63015;45.378;20.360;2024-03-17T10:28:43;101196.31;;;17.21;42.11
74542;BME280;63015;45.378;20.360;2024-03-17T10:30:57;101197.19;;;17.20;40.40
74542;BME280;63015;45.378;20.360;2024-03-17T10:32:59;101205.25;;;17.09;38.53